createdAt,value
2022-11-18T00:02:16.399Z,13.70
2022-11-18T00:04:44.449Z,10.25
2022-11-18T00:07:12.051Z,10.80
2022-11-18T00:09:39.951Z,12.57
2022-11-18T00:12:07.503Z,13.55
2022-11-18T00:14:35.581Z,7.22
2022-11-18T00:17:05.928Z,11.57
2022-11-18T00:19:35.821Z,11.65
2022-11-18T00:22:04.309Z,8.88
2022-11-18T00:24:32.698Z,10.23
2022-11-18T00:27:00.500Z,11.10
2022-11-18T00:29:28.759Z,9.75
2022-11-18T00:31:56.963Z,12.25
2022-11-18T00:34:26.968Z,10.20
2022-11-18T00:36:54.752Z,9.90
2022-11-18T00:39:23.308Z,5.75
2022-11-18T00:41:50.627Z,8.15
2022-11-18T00:44:18.555Z,10.38
2022-11-18T00:46:45.984Z,8.23
2022-11-18T00:49:13.903Z,13.30
2022-11-18T00:51:42.893Z,10.98
2022-11-18T00:54:10.694Z,11.00
2022-11-18T00:56:38.182Z,10.30
2022-11-18T00:59:06.391Z,11.35
2022-11-18T01:01:34.131Z,7.22
2022-11-18T01:04:02.424Z,10.95
2022-11-18T01:06:30.142Z,11.77
2022-11-18T01:08:59.403Z,10.60
2022-11-18T01:11:26.868Z,15.55
2022-11-18T01:13:55.135Z,10.43
2022-11-18T01:16:24.632Z,10.40
2022-11-18T01:18:53.590Z,9.27
2022-11-18T01:21:21.703Z,10.25
2022-11-18T01:23:50.534Z,9.70
2022-11-18T01:26:19.395Z,8.80
2022-11-18T01:28:47.373Z,10.10
2022-11-18T01:31:16.315Z,9.48
2022-11-18T01:33:45.739Z,8.25
2022-11-18T01:36:18.565Z,7.68
2022-11-18T01:38:47.073Z,7.55
2022-11-18T01:41:14.511Z,11.70
2022-11-18T01:43:54.083Z,9.73
2022-11-18T01:46:22.839Z,12.00
2022-11-18T01:48:54.246Z,12.32
2022-11-18T01:51:25.745Z,11.18
2022-11-18T01:53:59.791Z,7.57
2022-11-18T01:56:33.163Z,10.25
2022-11-18T01:59:06.459Z,14.18
2022-11-18T02:01:34.239Z,13.38
2022-11-18T02:04:02.690Z,11.18
2022-11-18T02:06:30.283Z,11.88
2022-11-18T02:09:01.026Z,9.10
2022-11-18T02:11:28.771Z,15.60
2022-11-18T02:13:57.010Z,10.98
2022-11-18T02:16:34.873Z,12.13
2022-11-18T02:19:11.208Z,13.63
2022-11-18T02:21:46.578Z,10.75
2022-11-18T02:24:42.171Z,9.38
2022-11-18T02:27:48.011Z,11.30
2022-11-18T02:30:18.858Z,14.20
2022-11-18T02:32:56.965Z,9.30
2022-11-18T02:35:30.467Z,11.40
2022-11-18T02:38:02.530Z,11.43
2022-11-18T02:40:35.005Z,7.78
2022-11-18T02:43:06.644Z,12.45
2022-11-18T02:45:37.833Z,7.22
2022-11-18T02:48:09.353Z,12.93
2022-11-18T02:50:42.077Z,12.38
2022-11-18T02:53:13.406Z,6.85
2022-11-18T02:55:42.640Z,10.05
2022-11-18T02:58:12.669Z,13.15
2022-11-18T03:00:42.067Z,15.95
2022-11-18T03:03:26.581Z,15.82
2022-11-18T03:06:04.527Z,9.50
2022-11-18T03:08:37.518Z,11.80
2022-11-18T03:11:14.606Z,12.52
2022-11-18T03:13:58.644Z,10.73
2022-11-18T03:16:32.417Z,12.02
2022-11-18T03:19:07.525Z,12.15
2022-11-18T03:21:39.425Z,11.98
2022-11-18T03:24:14.223Z,10.50
2022-11-18T03:26:49.225Z,17.05
2022-11-18T03:29:21.869Z,14.35
2022-11-18T03:34:27.216Z,11.43
2022-11-18T03:37:00.725Z,16.52
2022-11-18T03:39:32.283Z,17.90
2022-11-18T03:42:07.585Z,13.27
2022-11-18T03:44:39.005Z,17.40
2022-11-18T03:47:12.715Z,13.77
2022-11-18T03:49:45.187Z,16.42
2022-11-18T03:52:19.005Z,16.73
2022-11-18T03:54:51.075Z,14.38
2022-11-18T03:57:23.008Z,16.02
2022-11-18T03:59:57.131Z,12.57
2022-11-18T04:02:30.146Z,11.52
2022-11-18T04:05:00.450Z,15.57
2022-11-18T04:07:34.000Z,13.57
2022-11-18T04:10:07.753Z,16.27
2022-11-18T04:12:42.536Z,17.77
2022-11-18T04:15:10.160Z,18.33
2022-11-18T04:17:41.967Z,15.68
2022-11-18T04:20:14.978Z,18.45
2022-11-18T04:22:50.518Z,16.95
2022-11-18T04:25:18.040Z,22.33
2022-11-18T04:27:46.506Z,18.23
2022-11-18T04:30:17.624Z,21.45
2022-11-18T04:32:47.388Z,21.92
2022-11-18T04:35:15.197Z,19.80
2022-11-18T04:37:43.528Z,22.38
2022-11-18T04:40:12.940Z,22.80
2022-11-18T04:42:40.803Z,18.95
2022-11-18T04:45:09.708Z,21.08
2022-11-18T04:47:38.332Z,19.15
2022-11-18T04:50:07.899Z,20.17
2022-11-18T04:52:35.627Z,18.05
2022-11-18T04:55:02.960Z,20.35
2022-11-18T04:57:31.283Z,20.25
2022-11-18T04:59:58.766Z,19.63
2022-11-18T05:02:26.594Z,21.42
2022-11-18T05:04:53.942Z,19.13
2022-11-18T05:07:23.339Z,15.75
2022-11-18T05:09:51.047Z,15.48
2022-11-18T05:12:18.868Z,15.85
2022-11-18T05:14:50.031Z,19.40
2022-11-18T05:17:18.683Z,20.35
2022-11-18T05:19:46.359Z,18.88
2022-11-18T05:22:15.251Z,24.70
2022-11-18T05:24:44.109Z,18.45
2022-11-18T05:27:12.020Z,22.65
2022-11-18T05:29:39.336Z,23.70
2022-11-18T05:32:07.103Z,18.65
2022-11-18T05:34:34.529Z,21.05
2022-11-18T05:37:02.489Z,23.40
2022-11-18T05:39:29.975Z,10.85
2022-11-18T05:41:59.444Z,20.63
2022-11-18T05:44:29.966Z,18.88
2022-11-18T05:46:57.844Z,18.73
2022-11-18T05:49:25.339Z,16.77
2022-11-18T05:51:53.079Z,19.33
2022-11-18T05:54:21.822Z,16.80
2022-11-18T05:56:49.852Z,16.88
2022-11-18T05:59:19.018Z,21.33
2022-11-18T06:01:50.971Z,15.60
2022-11-18T06:04:24.735Z,15.10
2022-11-18T06:06:57.611Z,19.45
2022-11-18T06:09:31.331Z,18.75
2022-11-18T06:12:03.331Z,17.17
2022-11-18T06:14:37.040Z,20.27
2022-11-18T06:17:09.228Z,19.45
2022-11-18T06:19:36.863Z,19.70
2022-11-18T06:22:05.437Z,19.73
2022-11-18T06:24:33.589Z,14.98
2022-11-18T06:27:01.755Z,17.52
2022-11-18T06:29:32.234Z,20.33
2022-11-18T06:32:00.208Z,15.05
2022-11-18T06:34:27.650Z,20.30
2022-11-18T06:36:55.819Z,20.70
2022-11-18T06:39:23.173Z,19.20
2022-11-18T06:41:53.289Z,18.88
2022-11-18T06:44:20.613Z,14.82
2022-11-18T06:46:52.615Z,18.42
2022-11-18T06:49:20.211Z,21.58
2022-11-18T06:51:48.446Z,21.23
2022-11-18T06:54:15.699Z,17.73
2022-11-18T06:56:44.278Z,21.88
2022-11-18T06:59:11.704Z,14.98
2022-11-18T07:01:41.135Z,18.73
2022-11-18T07:04:09.983Z,20.20
2022-11-18T07:06:37.766Z,17.38
2022-11-18T07:09:07.529Z,23.42
2022-11-18T07:11:35.376Z,15.60
2022-11-18T07:14:02.817Z,19.15
2022-11-18T07:16:30.784Z,16.33
2022-11-18T07:18:58.168Z,16.42
2022-11-18T07:21:28.956Z,17.92
2022-11-18T07:23:57.272Z,24.48
2022-11-18T07:26:25.079Z,15.00
2022-11-18T07:28:53.652Z,19.08
2022-11-18T07:31:21.533Z,16.42
2022-11-18T07:33:49.274Z,21.35
2022-11-18T07:36:19.475Z,18.63
2022-11-18T07:38:51.533Z,16.88
2022-11-18T07:41:21.000Z,20.30
2022-11-18T07:43:49.311Z,17.77
2022-11-18T07:46:19.753Z,23.00
2022-11-18T07:48:49.507Z,22.70
2022-11-18T07:51:19.201Z,14.73
2022-11-18T07:53:48.582Z,25.10
2022-11-18T07:56:18.385Z,18.23
2022-11-18T07:58:46.335Z,13.10
2022-11-18T08:01:16.298Z,16.45
2022-11-18T08:03:44.781Z,20.38
2022-11-18T08:06:15.657Z,22.92
2022-11-18T08:08:43.474Z,23.40
2022-11-18T08:11:21.594Z,18.10
2022-11-18T08:13:50.265Z,24.30
2022-11-18T08:16:20.787Z,17.85
2022-11-18T08:18:48.462Z,18.92
2022-11-18T08:21:17.704Z,12.20
2022-11-18T08:23:49.930Z,17.90
2022-11-18T08:26:19.864Z,14.38
2022-11-18T08:28:47.404Z,18.77
2022-11-18T08:31:17.626Z,22.30
2022-11-18T08:33:45.665Z,17.13
2022-11-18T08:36:16.151Z,23.42
2022-11-18T08:38:44.065Z,13.45
2022-11-18T08:41:13.771Z,21.13
2022-11-18T08:43:43.168Z,13.70
2022-11-18T08:46:11.467Z,16.92
2022-11-18T08:48:38.964Z,17.20
2022-11-18T08:51:09.354Z,18.35
2022-11-18T08:53:36.755Z,18.75
2022-11-18T08:56:04.536Z,20.67
2022-11-18T08:58:32.115Z,20.15
2022-11-18T09:01:06.956Z,12.07
2022-11-18T09:03:34.547Z,19.80
2022-11-18T09:06:06.905Z,18.33
2022-11-18T09:08:34.640Z,17.73
2022-11-18T09:11:07.448Z,19.48
2022-11-18T09:16:27.965Z,12.25
2022-11-18T09:18:56.259Z,11.43
2022-11-18T09:21:25.035Z,24.23
2022-11-18T09:23:53.458Z,21.40
2022-11-18T09:26:23.273Z,26.10
2022-11-18T09:28:53.169Z,16.52
2022-11-18T09:31:21.306Z,11.30
2022-11-18T09:33:50.663Z,16.65
2022-11-18T09:36:20.692Z,25.80
2022-11-18T09:38:51.836Z,20.13
2022-11-18T09:41:36.624Z,20.13
2022-11-18T09:44:13.548Z,11.82
2022-11-18T09:46:56.346Z,16.80
2022-11-18T09:49:29.222Z,26.92
2022-11-18T09:52:01.571Z,20.17
2022-11-18T09:54:31.932Z,15.10
2022-11-18T09:57:00.236Z,22.73
2022-11-18T09:59:30.813Z,15.13
2022-11-18T10:02:04.032Z,17.38
2022-11-18T10:04:32.986Z,20.35
2022-11-18T10:07:06.345Z,17.05
2022-11-18T10:09:37.960Z,18.88
2022-11-18T10:12:17.177Z,19.17
2022-11-18T10:15:08.976Z,18.13
2022-11-18T10:17:49.364Z,15.20
2022-11-18T10:20:31.973Z,20.55
2022-11-18T10:23:05.549Z,16.55
2022-11-18T10:25:32.892Z,16.90
2022-11-18T10:28:15.456Z,23.08
2022-11-18T10:30:42.901Z,14.07
2022-11-18T10:33:26.094Z,16.02
2022-11-18T10:36:11.115Z,23.90
2022-11-18T10:38:39.712Z,17.27
2022-11-18T10:41:12.536Z,29.25
2022-11-18T10:43:46.318Z,19.13
2022-11-18T10:46:25.662Z,23.88
2022-11-18T10:49:13.239Z,20.75
2022-11-18T10:51:43.686Z,19.10
2022-11-18T10:54:17.367Z,35.13
2022-11-18T10:56:49.452Z,15.05
2022-11-18T10:59:29.218Z,13.98
2022-11-18T11:02:16.474Z,10.02
2022-11-18T11:04:46.031Z,13.07
2022-11-18T11:07:26.623Z,15.90
2022-11-18T11:10:02.308Z,30.30
2022-11-18T11:12:31.871Z,16.67
2022-11-18T11:15:03.237Z,20.13
2022-11-18T11:17:36.195Z,19.67
2022-11-18T11:20:06.994Z,13.02
2022-11-18T11:22:35.866Z,14.40
2022-11-18T11:25:06.978Z,12.05
2022-11-18T11:30:38.656Z,7.75
2022-11-18T11:33:29.205Z,12.35
2022-11-18T11:36:16.825Z,17.00
2022-11-18T11:39:05.158Z,13.45
2022-11-18T11:41:42.153Z,12.20
2022-11-18T11:44:24.075Z,13.57
2022-11-18T11:47:04.460Z,11.07
2022-11-18T11:49:45.954Z,13.07
2022-11-18T11:52:22.660Z,17.52
2022-11-18T11:54:58.388Z,9.80
2022-11-18T11:57:37.412Z,12.95
2022-11-18T12:00:09.831Z,17.85
2022-11-18T12:02:56.120Z,11.80
2022-11-18T12:05:29.260Z,12.50
2022-11-18T12:07:59.947Z,14.82
2022-11-18T12:10:41.865Z,14.05
2022-11-18T12:13:32.598Z,12.80
2022-11-18T12:16:10.917Z,15.25
2022-11-18T12:18:42.684Z,17.27
2022-11-18T12:21:48.410Z,13.00
2022-11-18T12:24:28.488Z,12.35
2022-11-18T12:26:58.834Z,21.38
2022-11-18T12:29:32.246Z,14.48
2022-11-18T12:32:00.219Z,19.88
2022-11-18T12:34:38.200Z,19.10
2022-11-18T12:37:54.342Z,21.98
2022-11-18T12:40:41.087Z,14.30
2022-11-18T12:44:06.220Z,10.18
2022-11-18T12:46:54.282Z,14.38
2022-11-18T12:50:10.054Z,17.52
2022-11-18T12:52:49.440Z,20.98
2022-11-18T12:55:21.231Z,18.60
2022-11-18T12:57:49.790Z,21.13
2022-11-18T13:00:30.290Z,20.92
2022-11-18T13:03:01.261Z,29.60
2022-11-18T13:05:31.163Z,25.02
2022-11-18T13:08:02.775Z,17.63
2022-11-18T13:10:33.363Z,18.60
2022-11-18T13:13:02.330Z,12.00
2022-11-18T13:15:31.436Z,23.80
2022-11-18T13:18:08.787Z,24.33
2022-11-18T13:20:38.233Z,19.45
2022-11-18T13:23:24.482Z,21.40
2022-11-18T13:25:52.041Z,27.30
2022-11-18T13:28:28.601Z,21.92
2022-11-18T13:31:12.792Z,19.55
2022-11-18T13:33:41.118Z,14.13
2022-11-18T13:36:17.525Z,18.95
2022-11-18T13:38:55.762Z,20.73
2022-11-18T13:41:24.253Z,15.88
2022-11-18T13:43:54.091Z,15.80
2022-11-18T13:46:23.378Z,16.60
2022-11-18T13:48:56.057Z,18.40
2022-11-18T13:51:25.979Z,13.55
2022-11-18T13:53:54.335Z,15.65
2022-11-18T13:56:27.947Z,15.32
2022-11-18T13:59:17.825Z,8.00
2022-11-18T14:01:52.896Z,12.32
2022-11-18T14:04:22.576Z,11.77
2022-11-18T14:06:50.589Z,10.18
2022-11-18T14:09:23.731Z,12.00
2022-11-18T14:12:02.191Z,13.60
2022-11-18T14:14:32.791Z,11.50
2022-11-18T14:17:16.357Z,9.70
2022-11-18T14:19:45.272Z,5.50
2022-11-18T14:22:15.798Z,5.95
2022-11-18T14:24:44.491Z,7.60
2022-11-18T14:27:40.400Z,7.53
2022-11-18T14:30:33.827Z,5.85
2022-11-18T14:33:15.180Z,3.97
2022-11-18T14:35:48.005Z,6.03
2022-11-18T14:41:07.632Z,8.30
2022-11-18T14:43:35.387Z,4.60
2022-11-18T14:46:05.580Z,5.93
2022-11-18T14:48:34.869Z,5.93
2022-11-18T14:51:02.625Z,8.52
2022-11-18T14:53:30.126Z,8.10
2022-11-18T14:55:59.412Z,7.03
2022-11-18T14:58:26.941Z,7.13
2022-11-18T15:00:55.049Z,9.05
2022-11-18T15:03:22.581Z,6.35
2022-11-18T15:05:52.272Z,8.13
2022-11-18T15:08:19.593Z,7.35
2022-11-18T15:10:47.302Z,4.00
2022-11-18T15:13:14.732Z,7.03
2022-11-18T15:15:42.856Z,9.07
2022-11-18T15:18:10.398Z,7.20
2022-11-18T15:20:38.507Z,10.82
2022-11-18T15:23:07.458Z,11.73
2022-11-18T15:25:35.678Z,8.00
2022-11-18T15:28:03.413Z,15.88
2022-11-18T15:30:31.410Z,10.45
2022-11-18T15:32:58.922Z,12.82
2022-11-18T15:35:26.798Z,7.72
2022-11-18T15:37:54.293Z,7.53
2022-11-18T15:40:24.185Z,6.47
2022-11-18T15:42:52.405Z,10.90
2022-11-18T15:45:20.756Z,5.88
2022-11-18T15:47:49.001Z,7.10
2022-11-18T15:50:18.330Z,7.78
2022-11-18T15:52:46.225Z,8.95
2022-11-18T15:55:15.108Z,7.05
2022-11-18T15:57:44.503Z,8.32
2022-11-18T16:00:14.555Z,9.65
2022-11-18T16:02:45.097Z,8.13
2022-11-18T16:05:13.883Z,9.40
2022-11-18T16:07:41.458Z,8.88
2022-11-18T16:10:10.871Z,8.18
2022-11-18T16:12:39.933Z,9.20
2022-11-18T16:15:11.203Z,11.50
2022-11-18T16:17:39.837Z,9.05
2022-11-18T16:20:10.018Z,8.82
2022-11-18T16:22:40.224Z,13.30
2022-11-18T16:25:11.340Z,15.88
2022-11-18T16:27:40.905Z,12.10
2022-11-18T16:30:13.266Z,16.10
2022-11-18T16:32:43.569Z,15.35
2022-11-18T16:35:13.408Z,19.88
2022-11-18T16:37:42.529Z,15.10
2022-11-18T16:40:12.287Z,15.07
2022-11-18T16:42:40.323Z,14.30
2022-11-18T16:45:09.274Z,12.38
2022-11-18T16:47:38.908Z,9.30
2022-11-18T16:50:07.145Z,12.18
2022-11-18T16:52:34.974Z,12.15
2022-11-18T16:55:03.396Z,12.05
2022-11-18T16:57:31.100Z,13.13
2022-11-18T16:59:59.239Z,16.65
2022-11-18T17:02:26.998Z,14.32
2022-11-18T17:04:56.780Z,12.73
2022-11-18T17:07:24.469Z,18.33
2022-11-18T17:09:52.194Z,15.73
2022-11-18T17:12:20.015Z,16.92
2022-11-18T17:14:48.329Z,16.55
2022-11-18T17:17:16.207Z,17.15
2022-11-18T17:19:44.672Z,18.40
2022-11-18T17:22:13.681Z,22.40
2022-11-18T17:24:42.446Z,16.45
2022-11-18T17:27:10.175Z,14.57
2022-11-18T17:29:38.325Z,21.20
2022-11-18T17:32:07.017Z,16.90
2022-11-18T17:34:35.684Z,17.88
2022-11-18T17:37:06.804Z,17.15
2022-11-18T17:39:37.922Z,18.77
2022-11-18T17:42:07.806Z,19.95
2022-11-18T17:44:40.594Z,20.02
2022-11-18T17:47:09.028Z,18.55
2022-11-18T17:49:39.145Z,17.75
2022-11-18T17:52:07.855Z,15.57
2022-11-18T17:54:38.384Z,14.43
2022-11-18T17:57:06.356Z,13.02
2022-11-18T17:59:35.004Z,12.57
2022-11-18T18:02:02.809Z,11.23
2022-11-18T18:04:31.235Z,12.70
2022-11-18T18:06:58.854Z,14.27
2022-11-18T18:09:31.030Z,13.55
2022-11-18T18:12:01.219Z,15.80
2022-11-18T18:14:28.956Z,14.27
2022-11-18T18:16:56.407Z,13.82
2022-11-18T18:19:24.691Z,15.25
2022-11-18T18:21:52.100Z,28.38
2022-11-18T18:24:20.736Z,28.40
2022-11-18T18:26:48.535Z,17.48
2022-11-18T18:29:18.078Z,29.33
2022-11-18T18:31:45.930Z,40.58
2022-11-18T18:34:14.092Z,33.25
2022-11-18T18:36:41.708Z,15.68
2022-11-18T18:39:09.763Z,16.25
2022-11-18T18:41:37.418Z,17.10
2022-11-18T18:44:05.662Z,15.15
2022-11-18T18:46:34.911Z,18.15
2022-11-18T18:49:05.141Z,16.80
2022-11-18T18:51:35.969Z,17.20
2022-11-18T18:54:04.586Z,24.75
2022-11-18T18:56:32.833Z,19.30
2022-11-18T18:59:00.973Z,20.58
2022-11-18T19:01:28.916Z,22.13
2022-11-18T19:04:00.891Z,24.13
2022-11-18T19:09:19.465Z,23.20
2022-11-18T19:11:47.820Z,24.00
2022-11-18T19:14:18.284Z,24.88
2022-11-18T19:16:46.975Z,24.42
2022-11-18T19:19:21.352Z,20.60
2022-11-18T19:21:48.915Z,20.35
2022-11-18T19:24:42.371Z,20.80
2022-11-18T19:27:05.819Z,18.98
2022-11-18T19:29:33.827Z,17.50
2022-11-18T19:32:01.607Z,16.40
2022-11-18T19:34:31.135Z,16.17
2022-11-18T19:36:58.645Z,16.10
2022-11-18T19:39:26.614Z,15.00
2022-11-18T19:41:54.338Z,16.98
2022-11-18T19:44:22.455Z,19.45
2022-11-18T19:46:50.072Z,18.13
2022-11-18T19:49:18.527Z,20.65
2022-11-18T19:51:48.199Z,23.23
2022-11-18T19:54:16.243Z,21.80
2022-11-18T19:56:43.911Z,18.50
2022-11-18T19:59:12.593Z,30.35
2022-11-18T20:01:40.496Z,24.10
2022-11-18T20:04:08.893Z,26.27
2022-11-18T20:06:37.091Z,25.40
2022-11-18T20:09:09.015Z,25.17
2022-11-18T20:11:37.266Z,23.30
2022-11-18T20:14:05.624Z,20.73
2022-11-18T20:16:33.298Z,19.38
2022-11-18T20:19:18.346Z,17.63
2022-11-18T20:21:46.054Z,22.92
2022-11-18T20:24:17.442Z,19.00
2022-11-18T20:26:45.390Z,22.30
2022-11-18T20:29:13.644Z,22.05
2022-11-18T20:31:41.939Z,18.75
2022-11-18T20:34:14.820Z,19.83
2022-11-18T20:36:44.654Z,19.88
2022-11-18T20:39:16.325Z,18.85
2022-11-18T20:41:45.225Z,16.50
2022-11-18T20:44:14.751Z,14.75
2022-11-18T20:46:43.165Z,14.73
2022-11-18T20:49:11.497Z,19.67
2022-11-18T20:51:39.373Z,16.70
2022-11-18T20:54:07.111Z,14.13
2022-11-18T20:56:36.145Z,19.60
2022-11-18T20:59:04.142Z,14.63
2022-11-18T21:01:31.768Z,16.30
2022-11-18T21:04:01.122Z,22.65
2022-11-18T21:06:32.295Z,19.15
2022-11-18T21:09:02.156Z,17.77
2022-11-18T21:11:30.282Z,20.08
2022-11-18T21:14:00.275Z,19.17
2022-11-18T21:16:28.709Z,17.13
2022-11-18T21:18:56.849Z,17.23
2022-11-18T21:21:24.523Z,20.83
2022-11-18T21:23:54.506Z,21.85
2022-11-18T21:26:22.498Z,19.10
2022-11-18T21:28:53.900Z,21.98
2022-11-18T21:31:24.150Z,20.08
2022-11-18T21:33:52.866Z,21.60
2022-11-18T21:36:21.489Z,22.38
2022-11-18T21:38:49.382Z,23.85
2022-11-18T21:41:16.808Z,16.70
2022-11-18T21:46:35.132Z,19.35
2022-11-18T21:49:04.115Z,18.30
2022-11-18T21:51:32.265Z,17.90
2022-11-18T21:54:01.537Z,18.52
2022-11-18T21:56:30.594Z,23.70
2022-11-18T21:58:59.665Z,23.85
2022-11-18T22:01:28.850Z,17.77
2022-11-18T22:04:00.784Z,18.38
2022-11-18T22:06:29.834Z,21.08
2022-11-18T22:08:57.701Z,24.33
2022-11-18T22:11:26.997Z,23.50
2022-11-18T22:13:55.170Z,21.45
2022-11-18T22:16:24.351Z,14.63
2022-11-18T22:18:59.985Z,19.75
2022-11-18T22:21:31.333Z,20.05
2022-11-18T22:24:00.807Z,12.98
2022-11-18T22:26:28.945Z,17.15
2022-11-18T22:28:58.053Z,18.60
2022-11-18T22:31:26.884Z,15.23
2022-11-18T22:33:55.523Z,13.88
2022-11-18T22:36:24.763Z,18.40
2022-11-18T22:38:54.869Z,20.67
2022-11-18T22:41:24.524Z,17.45
2022-11-18T22:43:52.129Z,20.67
2022-11-18T22:46:19.752Z,17.88
2022-11-18T22:48:47.426Z,19.08
2022-11-18T22:51:14.830Z,17.02
2022-11-18T22:53:42.651Z,17.80
2022-11-18T22:56:13.943Z,15.57
2022-11-18T22:58:41.758Z,12.52
2022-11-18T23:01:12.234Z,16.85
2022-11-18T23:03:40.188Z,17.08
2022-11-18T23:06:08.417Z,16.83
2022-11-18T23:08:38.011Z,18.00
2022-11-18T23:11:07.244Z,17.92
2022-11-18T23:13:37.049Z,14.68
2022-11-18T23:16:05.106Z,19.88
2022-11-18T23:18:33.239Z,17.20
2022-11-18T23:21:01.810Z,16.00
2022-11-18T23:23:31.116Z,11.75
2022-11-18T23:26:04.045Z,15.60
2022-11-18T23:28:32.427Z,14.13
2022-11-18T23:31:09.193Z,12.18
2022-11-18T23:33:38.157Z,15.43
2022-11-18T23:36:06.280Z,14.55
2022-11-18T23:38:35.020Z,15.88
2022-11-18T23:41:04.238Z,13.75
2022-11-18T23:43:32.547Z,15.80
2022-11-18T23:46:00.108Z,15.82
2022-11-18T23:48:33.196Z,13.40
2022-11-18T23:51:02.507Z,13.38
2022-11-18T23:53:31.262Z,14.52
2022-11-18T23:55:58.674Z,14.15
2022-11-18T23:58:26.960Z,15.45
